createdAt,value
2022-07-29T00:01:05.634Z,101332.94
2022-07-29T00:03:32.662Z,101326.16
2022-07-29T00:06:00.824Z,101319.97
2022-07-29T00:08:28.068Z,101314.00
2022-07-29T00:10:55.079Z,101316.63
2022-07-29T00:13:32.108Z,101315.00
2022-07-29T00:16:03.587Z,101308.06
2022-07-29T00:18:32.920Z,101309.81
2022-07-29T00:21:00.341Z,101306.41
2022-07-29T00:23:27.380Z,101303.00
2022-07-29T00:25:54.504Z,101300.38
2022-07-29T00:28:21.493Z,101296.97
2022-07-29T00:30:48.568Z,101282.13
2022-07-29T00:33:15.649Z,101281.34
2022-07-29T00:35:45.577Z,101270.94
2022-07-29T00:38:15.523Z,101266.66
2022-07-29T00:40:44.004Z,101269.38
2022-07-29T00:43:14.093Z,101263.25
2022-07-29T00:45:44.624Z,101252.00
2022-07-29T00:48:11.851Z,101252.03
2022-07-29T00:50:39.680Z,101251.19
2022-07-29T00:53:12.940Z,101248.56
2022-07-29T00:55:40.133Z,101256.47
2022-07-29T00:58:08.106Z,101249.50
2022-07-29T01:00:35.254Z,101241.94
2022-07-29T01:03:02.434Z,101251.34
2022-07-29T01:05:50.682Z,101245.31
2022-07-29T01:08:21.227Z,101251.50
2022-07-29T01:10:50.302Z,101246.41
2022-07-29T01:13:18.728Z,101242.06
2022-07-29T01:15:56.363Z,101230.94
2022-07-29T01:18:40.569Z,101233.63
2022-07-29T01:21:55.875Z,101229.66
2022-07-29T01:24:51.495Z,101246.94
2022-07-29T01:28:00.589Z,101240.94
2022-07-29T01:30:30.845Z,101231.50
2022-07-29T01:33:36.495Z,101242.69
2022-07-29T01:36:17.578Z,101247.19
2022-07-29T01:38:58.919Z,101245.56
2022-07-29T01:41:30.579Z,101243.88
2022-07-29T01:44:10.682Z,101233.50
2022-07-29T01:46:45.586Z,101233.66
2022-07-29T01:49:21.183Z,101230.38
2022-07-29T01:51:55.606Z,101223.59
2022-07-29T01:54:46.992Z,101222.66
2022-07-29T01:57:21.030Z,101225.34
2022-07-29T01:59:51.271Z,101229.84
2022-07-29T02:02:21.812Z,101226.34
2022-07-29T02:04:51.687Z,101236.84
2022-07-29T02:07:22.920Z,101243.81
2022-07-29T02:09:54.713Z,101239.47
2022-07-29T02:12:25.084Z,101242.16
2022-07-29T02:14:55.516Z,101247.41
2022-07-29T02:17:50.038Z,101259.69
2022-07-29T02:20:18.139Z,101263.41
2022-07-29T02:22:48.232Z,101279.91
2022-07-29T02:25:17.475Z,101273.00
2022-07-29T02:27:46.572Z,101280.03
2022-07-29T02:30:14.447Z,101269.53
2022-07-29T02:32:44.494Z,101265.38
2022-07-29T02:35:20.234Z,101274.19
2022-07-29T02:38:11.464Z,101271.69
2022-07-29T02:40:43.057Z,101267.34
2022-07-29T02:43:12.061Z,101256.09
2022-07-29T02:45:39.930Z,101252.75
2022-07-29T02:48:16.139Z,101251.13
2022-07-29T02:50:55.593Z,101260.81
2022-07-29T02:53:27.699Z,101265.28
2022-07-29T02:56:09.039Z,101271.41
2022-07-29T02:58:49.929Z,101265.41
2022-07-29T03:01:24.997Z,101264.72
2022-07-29T03:03:55.084Z,101265.81
2022-07-29T03:06:28.105Z,101269.47
2022-07-29T03:09:09.138Z,101276.56
2022-07-29T03:11:46.091Z,101291.59
2022-07-29T03:14:21.519Z,101301.25
2022-07-29T03:16:51.998Z,101308.31
2022-07-29T03:19:21.414Z,101307.53
2022-07-29T03:21:48.897Z,101317.25
2022-07-29T03:24:35.304Z,101328.66
2022-07-29T03:27:04.609Z,101338.44
2022-07-29T03:29:33.021Z,101338.44
2022-07-29T03:32:07.141Z,101354.16
2022-07-29T03:34:35.493Z,101351.69
2022-07-29T03:37:02.698Z,101356.06
2022-07-29T03:39:39.241Z,101357.91
2022-07-29T03:42:11.539Z,101352.69
2022-07-29T03:44:44.041Z,101351.97
2022-07-29T03:47:14.595Z,101351.34
2022-07-29T03:49:43.590Z,101338.53
2022-07-29T03:52:11.306Z,101315.28
2022-07-29T03:54:38.541Z,101299.81
2022-07-29T03:57:08.926Z,101300.84
2022-07-29T03:59:37.077Z,101283.81
2022-07-29T04:02:06.550Z,101279.78
2022-07-29T04:04:37.286Z,101284.41
2022-07-29T04:07:08.400Z,101290.09
2022-07-29T04:09:35.588Z,101283.38
2022-07-29T04:12:04.346Z,101254.88
2022-07-29T04:14:35.915Z,101253.41
2022-07-29T04:17:05.524Z,101266.94
2022-07-29T04:19:33.521Z,101266.19
2022-07-29T04:22:02.111Z,101270.72
2022-07-29T04:24:29.733Z,101265.59
2022-07-29T04:26:57.122Z,101290.03
2022-07-29T04:29:24.332Z,101298.91
2022-07-29T04:31:51.680Z,101301.50
2022-07-29T04:34:19.829Z,101304.00
2022-07-29T04:36:47.279Z,101316.28
2022-07-29T04:39:18.042Z,101314.63
2022-07-29T04:41:48.345Z,101329.38
2022-07-29T04:44:15.822Z,101321.53
2022-07-29T04:46:44.623Z,101304.16
2022-07-29T04:49:11.975Z,101300.69
2022-07-29T04:51:39.271Z,101297.34
2022-07-29T04:54:07.262Z,101294.78
2022-07-29T04:56:34.421Z,101293.19
2022-07-29T04:59:01.682Z,101295.84
2022-07-29T05:01:28.907Z,101282.00
2022-07-29T05:04:00.321Z,101275.13
2022-07-29T05:06:28.014Z,101272.66
2022-07-29T05:08:55.214Z,101272.75
2022-07-29T05:11:30.504Z,101272.94
2022-07-29T05:13:58.022Z,101262.75
2022-07-29T05:16:28.362Z,101254.97
2022-07-29T05:18:55.540Z,101263.84
2022-07-29T05:21:22.816Z,101270.03
2022-07-29T05:23:50.074Z,101264.84
2022-07-29T05:26:17.377Z,101268.25
2022-07-29T05:28:44.608Z,101267.34
2022-07-29T05:31:11.919Z,101275.16
2022-07-29T05:33:39.205Z,101272.56
2022-07-29T05:36:09.305Z,101272.47
2022-07-29T05:38:37.523Z,101273.38
2022-07-29T05:41:06.313Z,101278.50
2022-07-29T05:43:34.208Z,101283.69
2022-07-29T05:46:01.490Z,101290.53
2022-07-29T05:48:28.931Z,101294.88
2022-07-29T05:50:56.739Z,101307.06
2022-07-29T05:53:23.999Z,101300.91
2022-07-29T05:55:52.975Z,101308.72
2022-07-29T05:58:20.641Z,101315.59
2022-07-29T06:00:48.050Z,101317.22
2022-07-29T06:03:15.394Z,101315.44
2022-07-29T06:05:42.703Z,101299.78
2022-07-29T06:08:09.893Z,101311.88
2022-07-29T06:10:37.409Z,101310.94
2022-07-29T06:13:04.665Z,101319.59
2022-07-29T06:15:32.154Z,101331.72
2022-07-29T06:18:01.283Z,101335.13
2022-07-29T06:20:33.033Z,101325.53
2022-07-29T06:23:01.225Z,101329.84
2022-07-29T06:25:33.409Z,101331.41
2022-07-29T06:28:00.618Z,101347.00
2022-07-29T06:30:28.145Z,101340.09
2022-07-29T06:32:56.007Z,101353.06
2022-07-29T06:35:42.026Z,101350.44
2022-07-29T06:38:30.153Z,101359.88
2022-07-29T06:41:07.062Z,101363.28
2022-07-29T06:43:42.692Z,101363.28
2022-07-29T06:46:21.177Z,101371.97
2022-07-29T06:48:49.153Z,101366.72
2022-07-29T06:51:22.575Z,101364.00
2022-07-29T06:54:00.305Z,101361.28
2022-07-29T06:56:39.478Z,101367.34
2022-07-29T06:59:12.814Z,101373.31
2022-07-29T07:01:43.971Z,101372.38
2022-07-29T07:04:12.989Z,101371.50
2022-07-29T07:06:40.975Z,101365.34
2022-07-29T07:09:08.398Z,101371.34
2022-07-29T07:11:35.667Z,101371.44
2022-07-29T07:14:04.461Z,101373.00
2022-07-29T07:16:33.052Z,101375.59
2022-07-29T07:19:01.122Z,101377.28
2022-07-29T07:21:30.216Z,101378.13
2022-07-29T07:23:58.628Z,101364.13
2022-07-29T07:26:26.426Z,101366.69
2022-07-29T07:28:53.722Z,101369.31
2022-07-29T07:31:21.208Z,101370.03
2022-07-29T07:33:48.516Z,101360.47
2022-07-29T07:36:15.782Z,101359.63
2022-07-29T07:38:42.970Z,101370.03
2022-07-29T07:41:10.163Z,101371.81
2022-07-29T07:43:37.453Z,101381.31
2022-07-29T07:46:04.849Z,101381.31
2022-07-29T07:48:32.065Z,101375.22
2022-07-29T07:50:59.286Z,101383.00
2022-07-29T07:53:26.447Z,101370.72
2022-07-29T07:56:09.845Z,101370.72
2022-07-29T07:58:39.879Z,101358.56
2022-07-29T08:01:07.552Z,101350.72
2022-07-29T08:03:35.264Z,101355.28
2022-07-29T08:06:03.878Z,101349.31
2022-07-29T08:08:31.177Z,101358.91
2022-07-29T08:10:58.494Z,101357.25
2022-07-29T08:13:29.357Z,101359.88
2022-07-29T08:16:12.188Z,101361.56
2022-07-29T08:18:42.236Z,101361.56
2022-07-29T08:21:09.578Z,101357.19
2022-07-29T08:23:46.484Z,101347.06
2022-07-29T08:26:16.578Z,101355.72
2022-07-29T08:28:47.164Z,101357.38
2022-07-29T08:31:15.395Z,101356.41
2022-07-29T08:33:43.257Z,101355.47
2022-07-29T08:36:10.804Z,101360.75
2022-07-29T08:38:38.104Z,101369.41
2022-07-29T08:41:05.642Z,101366.81
2022-07-29T08:43:33.276Z,101367.59
2022-07-29T08:46:01.657Z,101371.88
2022-07-29T08:48:32.558Z,101369.25
2022-07-29T08:51:01.758Z,101380.50
2022-07-29T08:53:31.500Z,101384.78
2022-07-29T08:55:59.842Z,101376.06
2022-07-29T08:58:32.331Z,101370.88
2022-07-29T09:01:04.947Z,101366.44
2022-07-29T09:03:38.388Z,101354.41
2022-07-29T09:06:06.026Z,101351.78
2022-07-29T09:08:34.283Z,101353.47
2022-07-29T09:11:05.634Z,101349.16
2022-07-29T09:13:32.975Z,101356.91
2022-07-29T09:16:02.495Z,101363.84
2022-07-29T09:18:46.931Z,101360.25
2022-07-29T09:21:37.109Z,101359.31
2022-07-29T09:24:12.039Z,101363.72
2022-07-29T09:26:43.332Z,101360.94
2022-07-29T09:29:23.413Z,101367.91
2022-07-29T09:31:54.008Z,101369.53
2022-07-29T09:34:32.390Z,101373.72
2022-07-29T09:36:59.559Z,101368.44
2022-07-29T09:39:35.281Z,101376.09
2022-07-29T09:42:06.634Z,101369.03
2022-07-29T09:44:51.060Z,101373.94
2022-07-29T09:47:22.786Z,101365.16
2022-07-29T09:50:00.416Z,101377.88
2022-07-29T09:52:31.197Z,101369.06
2022-07-29T09:55:17.852Z,101369.66
2022-07-29T09:57:47.667Z,101366.78
2022-07-29T10:00:21.125Z,101372.69
2022-07-29T10:02:49.453Z,101369.06
2022-07-29T10:05:26.495Z,101368.66
2022-07-29T10:07:58.635Z,101373.63
2022-07-29T10:10:31.170Z,101377.78
2022-07-29T10:13:07.815Z,101372.41
2022-07-29T10:15:44.819Z,101376.38
2022-07-29T10:18:14.396Z,101378.81
2022-07-29T10:20:42.700Z,101374.31
2022-07-29T10:23:11.030Z,101378.31
2022-07-29T10:25:38.269Z,101383.22
2022-07-29T10:28:07.199Z,101379.44
2022-07-29T10:30:35.188Z,101376.59
2022-07-29T10:33:38.830Z,101379.59
2022-07-29T10:36:16.767Z,101390.72
2022-07-29T10:39:56.247Z,101380.69
2022-07-29T10:42:34.075Z,101382.94
2022-07-29T10:45:04.935Z,101382.63
2022-07-29T10:47:32.625Z,101383.91
2022-07-29T10:50:07.661Z,101381.56
2022-07-29T10:53:00.374Z,101384.59
2022-07-29T10:55:37.807Z,101381.69
2022-07-29T10:58:18.007Z,101379.72
2022-07-29T11:00:52.164Z,101384.66
2022-07-29T11:03:53.579Z,101387.75
2022-07-29T11:09:25.749Z,101384.38
2022-07-29T11:12:38.727Z,101371.66
2022-07-29T11:15:18.508Z,101377.56
2022-07-29T11:18:15.080Z,101372.63
2022-07-29T11:20:47.817Z,101375.78
2022-07-29T11:23:33.957Z,101364.00
2022-07-29T11:26:23.127Z,101365.38
2022-07-29T11:29:04.679Z,101367.56
2022-07-29T11:31:44.537Z,101374.97
2022-07-29T11:34:34.856Z,101377.91
2022-07-29T11:37:10.796Z,101371.41
2022-07-29T11:39:47.151Z,101366.59
2022-07-29T11:42:32.313Z,101362.69
2022-07-29T11:45:41.441Z,101365.50
2022-07-29T11:48:31.322Z,101365.94
2022-07-29T11:51:00.977Z,101376.84
2022-07-29T11:53:33.034Z,101379.06
2022-07-29T11:56:02.449Z,101376.09
2022-07-29T11:58:30.921Z,101371.50
2022-07-29T12:01:04.550Z,101382.75
2022-07-29T12:03:35.808Z,101377.22
2022-07-29T12:06:13.716Z,101374.06
2022-07-29T12:08:45.041Z,101371.06
2022-07-29T12:11:22.606Z,101368.97
2022-07-29T12:13:52.960Z,101363.53
2022-07-29T12:16:25.584Z,101364.09
2022-07-29T12:19:06.185Z,101371.66
2022-07-29T12:21:53.656Z,101368.81
2022-07-29T12:24:26.506Z,101366.97
2022-07-29T12:27:00.278Z,101371.03
2022-07-29T12:29:34.831Z,101362.00
2022-07-29T12:32:14.211Z,101366.91
2022-07-29T12:34:42.615Z,101372.72
2022-07-29T12:37:11.353Z,101375.84
2022-07-29T12:39:39.111Z,101376.44
2022-07-29T12:42:18.368Z,101360.22
2022-07-29T12:44:51.448Z,101363.16
2022-07-29T12:47:20.733Z,101358.47
2022-07-29T12:49:49.532Z,101358.34
2022-07-29T12:52:31.013Z,101355.16
2022-07-29T12:54:59.301Z,101349.81
2022-07-29T12:57:27.608Z,101357.25
2022-07-29T13:00:05.456Z,101358.56
2022-07-29T13:02:32.955Z,101356.78
2022-07-29T13:05:02.488Z,101359.25
2022-07-29T13:07:54.094Z,101355.53
2022-07-29T13:10:24.463Z,101358.97
2022-07-29T13:13:09.161Z,101359.34
2022-07-29T13:15:39.232Z,101353.03
2022-07-29T13:18:28.077Z,101354.63
2022-07-29T13:20:55.742Z,101356.53
2022-07-29T13:23:23.264Z,101372.00
2022-07-29T13:25:50.654Z,101366.53
2022-07-29T13:28:18.521Z,101360.16
2022-07-29T13:30:45.884Z,101360.09
2022-07-29T13:33:13.175Z,101364.22
2022-07-29T13:35:40.398Z,101355.38
2022-07-29T13:38:11.112Z,101355.38
2022-07-29T13:40:38.398Z,101350.63
2022-07-29T13:43:05.716Z,101351.59
2022-07-29T13:45:32.838Z,101349.59
2022-07-29T13:48:00.107Z,101353.06
2022-07-29T13:50:27.312Z,101348.44
2022-07-29T13:52:54.561Z,101338.81
2022-07-29T13:55:22.225Z,101345.41
2022-07-29T13:57:49.472Z,101344.28
2022-07-29T14:00:17.467Z,101345.00
2022-07-29T14:02:44.709Z,101348.53
2022-07-29T14:05:14.847Z,101346.63
2022-07-29T14:07:42.037Z,101340.59
2022-07-29T14:10:10.255Z,101342.28
2022-07-29T14:12:37.993Z,101338.78
2022-07-29T14:15:06.025Z,101348.13
2022-07-29T14:17:33.186Z,101340.22
2022-07-29T14:20:00.504Z,101345.50
2022-07-29T14:22:27.604Z,101345.50
2022-07-29T14:24:54.929Z,101346.91
2022-07-29T14:27:37.630Z,101336.31
2022-07-29T14:30:08.072Z,101340.84
2022-07-29T14:32:35.402Z,101346.06
2022-07-29T14:35:02.670Z,101342.56
2022-07-29T14:37:39.903Z,101341.59
2022-07-29T14:40:10.297Z,101329.50
2022-07-29T14:42:38.746Z,101338.28
2022-07-29T14:45:09.076Z,101340.00
2022-07-29T14:47:36.475Z,101335.47
2022-07-29T14:50:06.035Z,101346.63
2022-07-29T14:52:33.437Z,101341.22
2022-07-29T14:55:00.925Z,101348.41
2022-07-29T14:57:28.325Z,101346.63
2022-07-29T14:59:55.734Z,101345.47
2022-07-29T15:02:28.135Z,101343.78
2022-07-29T15:05:03.241Z,101343.78
2022-07-29T15:07:30.474Z,101342.81
2022-07-29T15:10:00.918Z,101345.25
2022-07-29T15:12:28.816Z,101350.34
2022-07-29T15:14:56.157Z,101346.22
2022-07-29T15:17:23.562Z,101345.06
2022-07-29T15:19:50.864Z,101347.41
2022-07-29T15:22:19.335Z,101351.63
2022-07-29T15:24:46.573Z,101346.25
2022-07-29T15:27:15.176Z,101327.94
2022-07-29T15:29:43.994Z,101344.16
2022-07-29T15:32:12.463Z,101343.19
2022-07-29T15:34:40.288Z,101341.53
2022-07-29T15:37:07.695Z,101335.69
2022-07-29T15:39:34.890Z,101339.06
2022-07-29T15:42:03.675Z,101340.66
2022-07-29T15:44:30.851Z,101345.00
2022-07-29T15:47:04.058Z,101343.00
2022-07-29T15:49:47.038Z,101337.50
2022-07-29T15:52:26.052Z,101344.28
2022-07-29T15:54:56.057Z,101335.22
2022-07-29T15:57:24.871Z,101338.28
2022-07-29T15:59:52.511Z,101344.31
2022-07-29T16:02:19.825Z,101339.00
2022-07-29T16:04:47.417Z,101333.00
2022-07-29T16:07:23.516Z,101336.16
2022-07-29T16:09:53.513Z,101336.06
2022-07-29T16:12:21.363Z,101336.78
2022-07-29T16:14:51.061Z,101322.72
2022-07-29T16:17:18.917Z,101317.25
2022-07-29T16:19:46.839Z,101315.38
2022-07-29T16:22:14.621Z,101319.69
2022-07-29T16:24:42.254Z,101321.28
2022-07-29T16:27:09.787Z,101317.69
2022-07-29T16:29:37.498Z,101320.44
2022-07-29T16:32:06.403Z,101330.41
2022-07-29T16:34:33.924Z,101316.31
2022-07-29T16:37:01.362Z,101332.25
2022-07-29T16:39:28.619Z,101328.84
2022-07-29T16:41:59.879Z,101328.00
2022-07-29T16:44:28.739Z,101322.09
2022-07-29T16:46:58.881Z,101324.84
2022-07-29T16:49:27.785Z,101322.28
2022-07-29T16:51:55.134Z,101322.22
2022-07-29T16:54:22.399Z,101323.13
2022-07-29T16:56:49.728Z,101322.28
2022-07-29T16:59:17.011Z,101321.44
2022-07-29T17:01:44.449Z,101325.91
2022-07-29T17:04:16.903Z,101325.78
2022-07-29T17:06:43.972Z,101326.66
2022-07-29T17:09:15.127Z,101331.19
2022-07-29T17:11:53.722Z,101326.00
2022-07-29T17:14:27.160Z,101333.94
2022-07-29T17:16:58.995Z,101324.31
2022-07-29T17:19:29.443Z,101326.19
2022-07-29T17:22:04.742Z,101316.56
2022-07-29T17:24:36.779Z,101331.59
2022-07-29T17:27:05.614Z,101333.19
2022-07-29T17:29:32.662Z,101330.34
2022-07-29T17:32:00.246Z,101329.59
2022-07-29T17:34:27.639Z,101329.59
2022-07-29T17:36:54.721Z,101323.75
2022-07-29T17:39:21.866Z,101328.19
2022-07-29T17:41:49.300Z,101335.09
2022-07-29T17:44:16.379Z,101337.94
2022-07-29T17:46:43.523Z,101344.06
2022-07-29T17:49:11.437Z,101346.72
2022-07-29T17:51:38.794Z,101356.25
2022-07-29T17:54:05.980Z,101357.31
2022-07-29T17:56:33.076Z,101352.13
2022-07-29T17:59:01.683Z,101346.84
2022-07-29T18:01:28.884Z,101357.31
2022-07-29T18:03:59.996Z,101354.88
2022-07-29T18:06:27.304Z,101356.66
2022-07-29T18:08:55.374Z,101359.31
2022-07-29T18:11:23.306Z,101364.03
2022-07-29T18:13:50.453Z,101366.06
2022-07-29T18:16:17.673Z,101364.38
2022-07-29T18:18:45.445Z,101377.59
2022-07-29T18:21:12.815Z,101382.25
2022-07-29T18:23:40.054Z,101381.47
2022-07-29T18:26:07.235Z,101381.78
2022-07-29T18:28:34.404Z,101383.69
2022-07-29T18:31:02.504Z,101384.72
2022-07-29T18:33:29.717Z,101378.78
2022-07-29T18:36:10.624Z,101383.44
2022-07-29T18:38:40.906Z,101381.84
2022-07-29T18:41:08.065Z,101379.38
2022-07-29T18:43:35.273Z,101384.78
2022-07-29T18:46:02.678Z,101387.69
2022-07-29T18:48:29.699Z,101387.88
2022-07-29T18:50:56.793Z,101388.91
2022-07-29T18:53:23.826Z,101377.88
2022-07-29T18:55:50.973Z,101377.31
2022-07-29T18:58:18.028Z,101373.28
2022-07-29T19:00:45.682Z,101375.63
2022-07-29T19:03:12.903Z,101387.34
2022-07-29T19:05:40.076Z,101383.41
2022-07-29T19:08:07.354Z,101382.00
2022-07-29T19:10:34.539Z,101383.22
2022-07-29T19:13:01.547Z,101381.91
2022-07-29T19:15:28.749Z,101383.19
2022-07-29T19:18:00.678Z,101388.75
2022-07-29T19:20:28.512Z,101381.38
2022-07-29T19:22:55.927Z,101390.63
2022-07-29T19:25:23.372Z,101395.41
2022-07-29T19:27:50.622Z,101382.66
2022-07-29T19:30:17.661Z,101388.22
2022-07-29T19:32:44.886Z,101395.50
2022-07-29T19:35:24.833Z,101392.25
2022-07-29T19:37:52.639Z,101398.84
2022-07-29T19:40:20.030Z,101398.28
2022-07-29T19:42:49.830Z,101400.44
2022-07-29T19:45:17.243Z,101414.94
2022-07-29T19:47:44.356Z,101417.91
2022-07-29T19:50:11.556Z,101413.84
2022-07-29T19:52:38.768Z,101417.78
2022-07-29T19:55:07.797Z,101429.44
2022-07-29T19:57:40.538Z,101430.69
2022-07-29T20:00:11.029Z,101434.50
2022-07-29T20:02:40.409Z,101433.94
2022-07-29T20:05:09.118Z,101434.19
2022-07-29T20:07:37.340Z,101434.66
2022-07-29T20:10:06.477Z,101438.31
2022-07-29T20:12:33.759Z,101434.31
2022-07-29T20:15:00.925Z,101435.31
2022-07-29T20:17:29.230Z,101442.63
2022-07-29T20:19:57.169Z,101434.22
2022-07-29T20:22:24.216Z,101445.84
2022-07-29T20:24:51.408Z,101448.63
2022-07-29T20:27:19.050Z,101444.53
2022-07-29T20:29:46.106Z,101446.56
2022-07-29T20:32:13.279Z,101448.69
2022-07-29T20:34:43.544Z,101456.75
2022-07-29T20:37:11.469Z,101452.63
2022-07-29T20:39:38.668Z,101454.50
2022-07-29T20:42:06.638Z,101457.38
2022-07-29T20:44:33.711Z,101466.19
2022-07-29T20:47:01.536Z,101468.06
2022-07-29T20:49:28.867Z,101468.25
2022-07-29T20:51:56.204Z,101470.97
2022-07-29T20:54:23.298Z,101465.94
2022-07-29T20:56:50.673Z,101462.59
2022-07-29T20:59:17.803Z,101462.75
2022-07-29T21:01:45.165Z,101465.50
2022-07-29T21:04:12.417Z,101469.13
2022-07-29T21:06:39.480Z,101469.34
2022-07-29T21:09:06.963Z,101472.13
2022-07-29T21:11:44.542Z,101479.09
2022-07-29T21:14:32.518Z,101481.91
2022-07-29T21:17:00.266Z,101483.81
2022-07-29T21:19:27.529Z,101490.94
2022-07-29T21:21:54.650Z,101490.94
2022-07-29T21:24:21.645Z,101490.94
2022-07-29T21:27:10.911Z,101497.19
2022-07-29T21:34:29.700Z,101491.38
2022-07-29T21:36:56.874Z,101499.19
2022-07-29T21:39:23.907Z,101496.66
2022-07-29T21:41:51.085Z,101500.28
2022-07-29T21:44:19.542Z,101501.28
2022-07-29T21:46:46.609Z,101504.69
2022-07-29T21:49:13.754Z,101502.13
2022-07-29T21:51:40.960Z,101496.94
2022-07-29T21:54:08.044Z,101491.84
2022-07-29T21:56:35.657Z,101497.94
2022-07-29T21:59:03.554Z,101500.56
2022-07-29T22:01:39.019Z,101496.41
2022-07-29T22:04:06.879Z,101508.56
2022-07-29T22:06:34.738Z,101504.28
2022-07-29T22:09:01.876Z,101503.50
2022-07-29T22:11:29.275Z,101506.22
2022-07-29T22:13:56.778Z,101507.06
2022-07-29T22:16:23.912Z,101501.09
2022-07-29T22:18:51.095Z,101501.09
2022-07-29T22:21:18.197Z,101506.38
2022-07-29T22:23:45.447Z,101500.31
2022-07-29T22:26:12.565Z,101501.31
2022-07-29T22:28:39.758Z,101503.88
2022-07-29T22:31:07.983Z,101503.94
2022-07-29T22:33:35.134Z,101502.25
2022-07-29T22:36:02.303Z,101508.50
2022-07-29T22:38:29.293Z,101500.88
2022-07-29T22:40:58.754Z,101500.91
2022-07-29T22:43:28.728Z,101492.41
2022-07-29T22:45:55.911Z,101493.31
2022-07-29T22:48:22.964Z,101489.16
2022-07-29T22:50:50.055Z,101494.53
2022-07-29T22:53:17.537Z,101491.22
2022-07-29T22:55:45.880Z,101485.16
2022-07-29T22:58:13.226Z,101484.69
2022-07-29T23:00:40.431Z,101481.28
2022-07-29T23:03:07.551Z,101478.13
2022-07-29T23:05:34.623Z,101483.47
2022-07-29T23:08:01.789Z,101478.50
2022-07-29T23:10:29.108Z,101466.50
2022-07-29T23:12:56.259Z,101470.19
2022-07-29T23:15:24.801Z,101463.44
2022-07-29T23:17:51.928Z,101467.19
2022-07-29T23:20:19.247Z,101468.16
2022-07-29T23:22:46.445Z,101466.66
2022-07-29T23:25:13.526Z,101463.28
2022-07-29T23:27:41.547Z,101454.84
2022-07-29T23:30:09.360Z,101464.63
2022-07-29T23:32:36.542Z,101461.28
2022-07-29T23:35:05.694Z,101456.31
2022-07-29T23:37:33.466Z,101460.84
2022-07-29T23:40:00.557Z,101468.91
2022-07-29T23:42:27.578Z,101456.00
2022-07-29T23:44:54.720Z,101466.63
2022-07-29T23:47:21.858Z,101472.94
2022-07-29T23:49:50.189Z,101458.34
2022-07-29T23:52:17.783Z,101457.63
2022-07-29T23:54:44.869Z,101464.69
2022-07-29T23:57:12.030Z,101459.72
2022-07-29T23:59:39.144Z,101457.22
